createdAt,value
2023-03-31T00:02:23.837Z,7.55
2023-03-31T00:04:53.450Z,6.18
2023-03-31T00:07:22.165Z,8.75
2023-03-31T00:09:49.327Z,5.72
2023-03-31T00:12:16.675Z,8.20
2023-03-31T00:14:43.950Z,5.05
2023-03-31T00:17:14.007Z,14.43
2023-03-31T00:19:41.921Z,11.63
2023-03-31T00:22:09.132Z,8.00
2023-03-31T00:24:36.501Z,9.23
2023-03-31T00:27:04.274Z,5.72
2023-03-31T00:29:31.477Z,9.68
2023-03-31T00:31:59.847Z,6.05
2023-03-31T00:34:27.764Z,7.25
2023-03-31T00:36:58.653Z,9.07
2023-03-31T00:39:26.190Z,3.25
2023-03-31T00:41:53.227Z,2.70
2023-03-31T00:44:25.364Z,5.32
2023-03-31T00:47:03.797Z,4.30
2023-03-31T00:49:45.387Z,3.58
2023-03-31T00:52:19.593Z,5.63
2023-03-31T00:54:48.326Z,5.40
2023-03-31T00:57:15.592Z,9.07
2023-03-31T00:59:48.257Z,5.57
2023-03-31T01:02:15.498Z,5.80
2023-03-31T01:04:46.201Z,10.02
2023-03-31T01:07:33.570Z,8.68
2023-03-31T01:10:01.619Z,4.72
2023-03-31T01:12:28.594Z,6.55
2023-03-31T01:14:55.744Z,3.85
2023-03-31T01:17:24.123Z,10.80
2023-03-31T01:20:16.165Z,6.57
2023-03-31T01:23:17.006Z,10.18
2023-03-31T01:26:02.871Z,6.57
2023-03-31T01:29:05.117Z,12.05
2023-03-31T01:31:59.011Z,5.03
2023-03-31T01:34:38.367Z,1.77
2023-03-31T01:37:25.435Z,1.80
2023-03-31T01:40:14.430Z,1.58
2023-03-31T01:42:56.623Z,1.65
2023-03-31T01:46:06.824Z,1.48
2023-03-31T01:48:58.297Z,3.30
2023-03-31T01:51:35.801Z,4.05
2023-03-31T01:54:16.157Z,10.75
2023-03-31T01:57:09.583Z,4.85
2023-03-31T02:00:01.334Z,3.60
2023-03-31T02:02:32.790Z,10.07
2023-03-31T02:05:01.236Z,11.85
2023-03-31T02:07:34.567Z,9.65
2023-03-31T02:10:04.400Z,4.07
2023-03-31T02:12:32.012Z,12.35
2023-03-31T02:14:59.133Z,11.98
2023-03-31T02:17:32.998Z,6.05
2023-03-31T02:20:05.742Z,10.77
2023-03-31T02:22:34.113Z,8.02
2023-03-31T02:25:01.537Z,5.32
2023-03-31T02:27:31.051Z,10.20
2023-03-31T02:29:58.268Z,11.52
2023-03-31T02:32:30.056Z,5.90
2023-03-31T02:34:58.283Z,7.20
2023-03-31T02:37:25.768Z,10.30
2023-03-31T02:39:53.293Z,8.52
2023-03-31T02:42:20.289Z,5.75
2023-03-31T02:44:49.148Z,4.80
2023-03-31T02:47:16.652Z,5.72
2023-03-31T02:49:49.097Z,11.63
2023-03-31T02:52:48.273Z,8.00
2023-03-31T02:55:30.608Z,7.65
2023-03-31T02:58:19.612Z,16.80
2023-03-31T03:00:49.398Z,9.63
2023-03-31T03:03:34.790Z,13.95
2023-03-31T03:06:30.121Z,11.65
2023-03-31T03:09:29.915Z,19.63
2023-03-31T03:12:15.726Z,10.63
2023-03-31T03:14:52.337Z,10.85
2023-03-31T03:17:27.656Z,11.02
2023-03-31T03:19:56.200Z,22.17
2023-03-31T03:22:23.495Z,15.82
2023-03-31T03:24:51.513Z,24.27
2023-03-31T03:27:19.355Z,24.23
2023-03-31T03:29:47.537Z,21.23
2023-03-31T03:48:50.037Z,14.05
2023-03-31T03:51:17.157Z,3.78
2023-03-31T03:53:44.066Z,17.63
2023-03-31T03:56:11.164Z,7.60
2023-03-31T03:58:38.106Z,10.57
2023-03-31T04:01:05.169Z,18.17
2023-03-31T04:03:32.198Z,9.45
2023-03-31T04:05:59.121Z,15.05
2023-03-31T04:08:26.250Z,10.15
2023-03-31T04:10:53.319Z,25.17
2023-03-31T04:13:20.441Z,17.40
2023-03-31T04:15:47.556Z,9.25
2023-03-31T04:18:22.741Z,15.02
2023-03-31T04:21:04.132Z,14.20
2023-03-31T04:23:46.659Z,18.42
2023-03-31T04:26:14.514Z,12.65
2023-03-31T04:28:42.903Z,22.05
2023-03-31T04:31:10.279Z,8.23
2023-03-31T04:33:40.136Z,24.67
2023-03-31T04:36:17.965Z,18.00
2023-03-31T04:38:50.590Z,22.45
2023-03-31T04:41:17.833Z,15.98
2023-03-31T04:43:44.920Z,12.85
2023-03-31T04:46:11.912Z,12.60
2023-03-31T04:48:38.983Z,14.05
2023-03-31T04:51:06.219Z,10.60
2023-03-31T04:53:33.321Z,4.88
2023-03-31T04:56:00.413Z,8.52
2023-03-31T04:58:27.638Z,5.55
2023-03-31T05:00:54.721Z,7.93
2023-03-31T05:03:21.979Z,13.48
2023-03-31T05:05:49.234Z,9.98
2023-03-31T05:08:16.226Z,5.70
2023-03-31T05:10:43.437Z,3.92
2023-03-31T05:13:11.077Z,6.00
2023-03-31T05:15:41.535Z,6.20
2023-03-31T05:18:08.560Z,6.00
2023-03-31T05:20:36.208Z,5.93
2023-03-31T05:23:03.277Z,7.10
2023-03-31T05:25:33.070Z,1.63
2023-03-31T05:28:00.388Z,12.20
2023-03-31T05:30:27.620Z,5.00
2023-03-31T05:32:54.681Z,4.95
2023-03-31T05:35:21.770Z,9.15
2023-03-31T05:37:49.418Z,3.17
2023-03-31T05:40:17.058Z,6.20
2023-03-31T05:42:44.312Z,9.27
2023-03-31T05:45:12.403Z,7.70
2023-03-31T05:47:39.496Z,7.53
2023-03-31T05:50:09.091Z,11.50
2023-03-31T05:52:36.343Z,9.07
2023-03-31T05:55:05.854Z,5.72
2023-03-31T05:57:32.944Z,12.45
2023-03-31T06:00:00.045Z,8.38
2023-03-31T06:02:27.329Z,8.13
2023-03-31T06:04:54.528Z,3.45
2023-03-31T06:07:25.014Z,7.25
2023-03-31T06:09:52.584Z,3.40
2023-03-31T06:12:19.753Z,2.20
2023-03-31T06:14:46.944Z,5.85
2023-03-31T06:17:13.953Z,5.10
2023-03-31T06:19:41.132Z,3.58
2023-03-31T06:22:08.202Z,7.53
2023-03-31T06:24:35.390Z,3.08
2023-03-31T06:27:03.890Z,16.35
2023-03-31T06:29:31.100Z,7.63
2023-03-31T06:31:58.793Z,3.95
2023-03-31T06:34:26.441Z,9.73
2023-03-31T06:36:53.497Z,2.35
2023-03-31T06:39:20.689Z,3.35
2023-03-31T06:41:47.683Z,8.52
2023-03-31T06:44:24.618Z,5.53
2023-03-31T06:46:51.578Z,8.27
2023-03-31T06:49:18.572Z,9.95
2023-03-31T06:51:45.541Z,8.15
2023-03-31T06:54:12.789Z,12.13
2023-03-31T06:56:39.877Z,8.82
2023-03-31T06:59:06.866Z,13.77
2023-03-31T07:01:37.325Z,14.52
2023-03-31T07:04:04.915Z,9.35
2023-03-31T07:06:31.888Z,6.72
2023-03-31T07:08:59.179Z,7.80
2023-03-31T07:11:26.129Z,18.00
2023-03-31T07:13:53.049Z,10.38
2023-03-31T07:16:20.513Z,10.23
2023-03-31T07:18:47.625Z,11.10
2023-03-31T07:21:14.675Z,13.70
2023-03-31T07:23:41.965Z,12.63
2023-03-31T07:26:08.921Z,13.40
2023-03-31T07:28:36.060Z,14.55
2023-03-31T07:31:02.983Z,10.10
2023-03-31T07:33:29.913Z,9.88
2023-03-31T07:36:10.003Z,12.75
2023-03-31T07:38:40.021Z,11.73
2023-03-31T07:41:10.815Z,17.27
2023-03-31T07:43:37.791Z,13.13
2023-03-31T07:46:05.910Z,19.05
2023-03-31T07:48:33.952Z,10.40
2023-03-31T07:51:00.899Z,5.93
2023-03-31T07:53:32.880Z,11.27
2023-03-31T07:55:59.824Z,10.90
2023-03-31T07:58:27.151Z,11.07
2023-03-31T08:00:54.221Z,16.70
2023-03-31T08:03:21.347Z,19.50
2023-03-31T08:05:52.443Z,22.00
2023-03-31T08:08:19.934Z,16.58
2023-03-31T08:10:47.545Z,17.02
2023-03-31T08:13:14.463Z,12.13
2023-03-31T08:15:41.509Z,16.52
2023-03-31T08:18:08.511Z,18.08
2023-03-31T08:20:35.779Z,16.50
2023-03-31T08:23:02.723Z,14.27
2023-03-31T08:25:29.635Z,12.38
2023-03-31T08:27:56.909Z,19.02
2023-03-31T08:30:23.785Z,15.00
2023-03-31T08:32:50.919Z,14.00
2023-03-31T08:35:17.980Z,18.00
2023-03-31T08:37:45.282Z,10.80
2023-03-31T08:40:18.990Z,15.05
2023-03-31T08:42:54.295Z,7.95
2023-03-31T08:45:22.350Z,22.65
2023-03-31T08:47:58.463Z,9.20
2023-03-31T08:50:30.992Z,12.95
2023-03-31T08:53:05.349Z,13.75
2023-03-31T08:55:44.854Z,9.35
2023-03-31T08:58:22.076Z,15.13
2023-03-31T09:00:57.877Z,15.52
2023-03-31T09:03:31.965Z,9.85
2023-03-31T09:06:16.627Z,10.45
2023-03-31T09:08:44.687Z,10.50
2023-03-31T09:11:36.965Z,12.18
2023-03-31T09:14:25.370Z,7.15
2023-03-31T09:17:16.566Z,5.40
2023-03-31T09:20:18.296Z,14.40
2023-03-31T09:22:47.304Z,12.80
2023-03-31T09:25:41.508Z,3.92
2023-03-31T09:28:22.762Z,10.82
2023-03-31T09:30:49.994Z,12.75
2023-03-31T09:33:32.078Z,19.42
2023-03-31T09:36:03.564Z,3.72
2023-03-31T09:38:31.245Z,8.40
2023-03-31T09:40:59.142Z,10.48
2023-03-31T09:43:30.444Z,6.25
2023-03-31T09:46:09.354Z,13.93
2023-03-31T09:48:37.210Z,13.10
2023-03-31T09:51:08.313Z,10.80
2023-03-31T09:53:43.637Z,7.78
2023-03-31T09:56:14.126Z,14.32
2023-03-31T09:58:44.329Z,14.70
2023-03-31T10:01:12.728Z,9.40
2023-03-31T10:03:53.888Z,10.57
2023-03-31T10:06:21.466Z,11.98
2023-03-31T10:08:56.106Z,11.95
2023-03-31T10:11:23.456Z,5.78
2023-03-31T10:13:58.883Z,11.32
2023-03-31T10:16:33.973Z,8.35
2023-03-31T10:19:26.695Z,12.90
2023-03-31T10:21:59.309Z,8.90
2023-03-31T10:24:27.827Z,10.20
2023-03-31T10:26:55.690Z,12.63
2023-03-31T10:29:33.633Z,6.05
2023-03-31T10:32:33.695Z,13.52
2023-03-31T10:35:25.334Z,4.85
2023-03-31T10:37:56.274Z,7.10
2023-03-31T10:40:32.017Z,9.38
2023-03-31T10:43:03.268Z,7.90
2023-03-31T10:45:57.530Z,8.32
2023-03-31T10:48:25.590Z,6.63
2023-03-31T10:50:52.826Z,5.93
2023-03-31T10:53:19.893Z,3.88
2023-03-31T10:55:55.845Z,8.00
2023-03-31T10:58:58.331Z,3.83
2023-03-31T11:01:46.614Z,2.97
2023-03-31T11:04:24.414Z,4.65
2023-03-31T11:07:18.867Z,0.60
2023-03-31T11:09:54.949Z,3.80
2023-03-31T11:12:26.636Z,0.35
2023-03-31T11:15:16.150Z,0.45
2023-03-31T11:18:12.404Z,0.75
2023-03-31T11:21:33.405Z,0.38
2023-03-31T11:24:00.784Z,1.23
2023-03-31T11:26:33.706Z,1.40
2023-03-31T11:29:23.856Z,0.10
2023-03-31T11:32:16.242Z,0.10
2023-03-31T11:34:55.483Z,1.90
2023-03-31T11:37:37.362Z,2.25
2023-03-31T11:40:10.309Z,1.55
2023-03-31T11:42:59.397Z,0.50
2023-03-31T11:45:32.534Z,5.57
2023-03-31T11:48:05.494Z,0.00
2023-03-31T11:50:38.375Z,0.00
2023-03-31T11:53:22.164Z,0.00
2023-03-31T11:55:50.991Z,1.13
2023-03-31T11:58:23.597Z,0.20
2023-03-31T12:00:57.973Z,0.00
2023-03-31T12:04:01.602Z,0.10
2023-03-31T12:06:31.667Z,0.20
2023-03-31T12:09:13.288Z,2.33
2023-03-31T12:11:52.646Z,0.45
2023-03-31T12:14:35.779Z,1.00
2023-03-31T12:17:08.975Z,1.60
2023-03-31T12:19:49.977Z,0.00
2023-03-31T12:22:23.846Z,2.47
2023-03-31T12:24:52.412Z,0.65
2023-03-31T12:27:32.817Z,0.70
2023-03-31T12:30:15.084Z,0.20
2023-03-31T12:32:44.581Z,1.65
2023-03-31T12:35:24.984Z,0.05
2023-03-31T12:38:41.564Z,0.00
2023-03-31T12:41:23.780Z,0.93
2023-03-31T12:44:22.767Z,0.00
2023-03-31T12:47:08.152Z,0.75
2023-03-31T12:50:09.665Z,1.05
2023-03-31T12:52:51.829Z,0.57
2023-03-31T12:55:36.614Z,2.20
2023-03-31T12:58:22.694Z,0.10
2023-03-31T13:01:18.118Z,1.27
2023-03-31T13:04:15.384Z,1.30
2023-03-31T13:06:43.309Z,0.20
2023-03-31T13:09:13.320Z,0.08
2023-03-31T13:11:43.100Z,3.72
2023-03-31T13:14:40.557Z,0.00
2023-03-31T13:17:33.765Z,0.32
2023-03-31T13:20:38.748Z,0.25
2023-03-31T13:23:15.647Z,0.32
2023-03-31T13:25:52.594Z,0.00
2023-03-31T13:28:22.973Z,0.00
2023-03-31T13:30:55.193Z,0.05
2023-03-31T13:33:28.735Z,0.00
2023-03-31T13:36:05.187Z,5.18
2023-03-31T13:41:54.297Z,1.00
2023-03-31T13:44:45.285Z,0.25
2023-03-31T13:47:48.565Z,0.10
2023-03-31T13:50:44.875Z,0.43
2023-03-31T13:53:54.672Z,0.15
2023-03-31T13:56:52.815Z,3.42
2023-03-31T13:59:28.772Z,0.05
2023-03-31T14:02:04.904Z,2.72
2023-03-31T14:05:09.132Z,2.13
2023-03-31T14:07:44.361Z,0.75
2023-03-31T14:10:33.228Z,4.50
2023-03-31T14:13:07.518Z,0.05
2023-03-31T14:15:36.447Z,0.30
2023-03-31T14:18:04.686Z,0.73
2023-03-31T14:20:36.104Z,0.75
2023-03-31T14:23:09.054Z,1.42
2023-03-31T14:25:42.940Z,4.13
2023-03-31T14:28:49.094Z,0.47
2023-03-31T14:31:35.297Z,0.20
2023-03-31T14:34:09.856Z,0.15
2023-03-31T14:36:52.757Z,0.00
2023-03-31T14:39:21.921Z,1.10
2023-03-31T14:41:56.999Z,1.23
2023-03-31T14:44:24.513Z,0.20
2023-03-31T14:46:51.663Z,0.40
2023-03-31T14:49:27.425Z,1.38
2023-03-31T14:52:01.435Z,2.72
2023-03-31T14:54:28.597Z,0.10
2023-03-31T14:56:58.556Z,0.30
2023-03-31T14:59:27.704Z,0.00
2023-03-31T15:01:54.893Z,0.00
2023-03-31T15:04:31.785Z,0.30
2023-03-31T15:07:07.048Z,0.88
2023-03-31T15:09:36.364Z,0.15
2023-03-31T15:12:08.423Z,0.45
2023-03-31T15:14:37.090Z,1.27
2023-03-31T15:17:04.349Z,0.00
2023-03-31T15:19:35.355Z,0.20
2023-03-31T15:22:09.809Z,0.85
2023-03-31T15:24:36.914Z,0.08
2023-03-31T15:27:20.351Z,1.40
2023-03-31T15:29:48.642Z,0.13
2023-03-31T15:32:38.500Z,1.80
2023-03-31T15:37:57.074Z,0.00
2023-03-31T15:40:29.224Z,5.72
2023-03-31T15:43:13.675Z,0.30
2023-03-31T15:45:54.791Z,0.38
2023-03-31T15:48:34.546Z,0.00
2023-03-31T15:51:02.709Z,2.10
2023-03-31T15:53:46.078Z,0.00
2023-03-31T15:56:37.864Z,2.15
2023-03-31T15:59:06.087Z,0.00
2023-03-31T16:01:44.478Z,0.00
2023-03-31T16:04:13.513Z,0.00
2023-03-31T16:06:46.729Z,0.00
2023-03-31T16:09:17.560Z,0.20
2023-03-31T16:11:49.945Z,0.03
2023-03-31T16:14:22.688Z,0.00
2023-03-31T16:16:52.805Z,0.65
2023-03-31T16:19:19.727Z,0.00
2023-03-31T16:21:50.351Z,0.20
2023-03-31T16:24:17.407Z,0.00
2023-03-31T16:26:44.538Z,0.00
2023-03-31T16:29:22.038Z,1.65
2023-03-31T16:31:49.424Z,0.00
2023-03-31T16:34:16.699Z,0.00
2023-03-31T16:36:44.354Z,1.48
2023-03-31T16:39:14.217Z,1.10
2023-03-31T16:41:41.218Z,0.00
2023-03-31T16:44:08.359Z,1.10
2023-03-31T16:46:35.401Z,0.00
2023-03-31T16:49:08.861Z,0.00
2023-03-31T16:51:36.013Z,0.00
2023-03-31T16:54:05.530Z,11.80
2023-03-31T16:56:33.892Z,0.00
2023-03-31T16:59:01.691Z,0.20
2023-03-31T17:01:28.752Z,0.00
2023-03-31T17:03:56.521Z,0.00
2023-03-31T17:06:23.641Z,0.85
2023-03-31T17:08:50.675Z,0.85
2023-03-31T17:11:17.572Z,2.45
2023-03-31T17:13:44.796Z,0.00
2023-03-31T17:18:42.001Z,0.00
2023-03-31T17:21:11.106Z,0.17
2023-03-31T17:23:39.040Z,0.00
2023-03-31T17:26:06.670Z,0.00
2023-03-31T17:28:34.354Z,11.93
2023-03-31T17:31:01.737Z,1.85
2023-03-31T17:33:29.119Z,0.00
2023-03-31T17:35:58.373Z,0.13
2023-03-31T17:38:26.351Z,0.00
2023-03-31T17:40:54.551Z,0.90
2023-03-31T17:43:21.947Z,0.40
2023-03-31T17:45:49.527Z,0.10
2023-03-31T17:48:16.568Z,0.00
2023-03-31T17:50:43.751Z,0.28
2023-03-31T17:53:13.498Z,2.10
2023-03-31T17:55:40.682Z,0.88
2023-03-31T17:58:08.672Z,0.32
2023-03-31T18:00:35.757Z,0.10
2023-03-31T18:03:03.212Z,0.10
2023-03-31T18:05:32.375Z,0.20
2023-03-31T18:07:59.944Z,1.25
2023-03-31T18:10:26.903Z,0.85
2023-03-31T18:12:55.045Z,0.10
2023-03-31T18:15:23.016Z,0.22
2023-03-31T18:17:50.618Z,0.00
2023-03-31T18:20:18.184Z,0.82
2023-03-31T18:22:45.217Z,1.00
2023-03-31T18:25:12.965Z,2.53
2023-03-31T18:27:39.992Z,1.02
2023-03-31T18:30:08.994Z,0.05
2023-03-31T18:32:36.793Z,0.55
2023-03-31T18:35:04.408Z,1.45
2023-03-31T18:37:31.772Z,1.73
2023-03-31T18:39:58.769Z,0.05
2023-03-31T18:42:29.245Z,1.65
2023-03-31T18:44:56.725Z,0.70
2023-03-31T18:47:24.596Z,1.75
2023-03-31T18:49:55.462Z,0.52
2023-03-31T18:52:23.544Z,0.55
2023-03-31T18:54:51.286Z,1.38
2023-03-31T18:57:18.472Z,4.05
2023-03-31T18:59:45.453Z,1.38
2023-03-31T19:02:13.944Z,2.80
2023-03-31T19:04:41.166Z,1.55
2023-03-31T19:07:10.680Z,0.93
2023-03-31T19:09:38.232Z,1.33
2023-03-31T19:12:05.923Z,2.83
2023-03-31T19:14:36.052Z,4.80
2023-03-31T19:17:04.028Z,0.30
2023-03-31T19:19:31.461Z,2.72
2023-03-31T19:21:58.649Z,0.00
2023-03-31T19:24:25.670Z,0.20
2023-03-31T19:26:52.713Z,1.70
2023-03-31T19:29:19.661Z,1.38
2023-03-31T19:31:47.576Z,1.30
2023-03-31T19:34:16.578Z,1.13
2023-03-31T19:36:43.763Z,0.80
2023-03-31T19:39:11.603Z,1.02
2023-03-31T19:41:38.491Z,2.08
2023-03-31T19:44:05.431Z,2.30
2023-03-31T19:46:32.431Z,1.77
2023-03-31T19:48:59.428Z,1.30
2023-03-31T19:51:27.573Z,0.45
2023-03-31T19:53:54.756Z,1.08
2023-03-31T19:56:25.333Z,0.10
2023-03-31T19:58:52.550Z,2.42
2023-03-31T20:01:25.187Z,0.98
2023-03-31T20:03:53.229Z,2.58
2023-03-31T20:06:25.190Z,2.03
2023-03-31T20:08:53.390Z,4.38
2023-03-31T20:11:21.116Z,0.10
2023-03-31T20:13:48.475Z,0.10
2023-03-31T20:16:20.155Z,0.40
2023-03-31T20:19:02.583Z,1.17
2023-03-31T20:21:30.631Z,0.10
2023-03-31T20:23:58.790Z,4.32
2023-03-31T20:26:30.501Z,0.75
2023-03-31T20:28:58.748Z,0.32
2023-03-31T20:31:27.287Z,0.15
2023-03-31T20:33:54.899Z,1.20
2023-03-31T20:36:23.817Z,0.85
2023-03-31T20:38:52.182Z,0.75
2023-03-31T20:41:20.795Z,1.27
2023-03-31T20:43:48.286Z,0.60
2023-03-31T20:46:15.743Z,1.75
2023-03-31T20:48:44.678Z,0.25
2023-03-31T20:51:14.399Z,0.57
2023-03-31T20:53:45.802Z,2.03
2023-03-31T20:56:20.572Z,0.40
2023-03-31T20:58:48.042Z,0.65
2023-03-31T21:01:15.254Z,1.70
2023-03-31T21:03:42.548Z,0.25
2023-03-31T21:06:11.960Z,0.55
2023-03-31T21:08:40.753Z,5.50
2023-03-31T21:11:08.073Z,0.20
2023-03-31T21:13:35.479Z,0.65
2023-03-31T21:16:04.297Z,1.77
2023-03-31T21:18:32.247Z,1.13
2023-03-31T21:21:01.172Z,0.85
2023-03-31T21:23:28.618Z,1.85
2023-03-31T21:25:58.386Z,1.05
2023-03-31T21:28:27.054Z,1.33
2023-03-31T21:31:12.936Z,1.58
2023-03-31T21:33:41.707Z,0.50
2023-03-31T21:36:11.198Z,4.40
2023-03-31T21:38:38.697Z,2.78
2023-03-31T21:41:06.916Z,2.72
2023-03-31T21:43:34.121Z,1.73
2023-03-31T21:46:04.306Z,4.45
2023-03-31T21:48:31.825Z,4.18
2023-03-31T21:51:00.710Z,1.83
2023-03-31T21:53:29.566Z,2.63
2023-03-31T21:55:57.378Z,1.85
2023-03-31T21:58:26.626Z,0.93
2023-03-31T22:00:58.611Z,0.90
2023-03-31T22:03:28.474Z,1.77
2023-03-31T22:05:56.645Z,1.17
2023-03-31T22:08:23.697Z,0.88
2023-03-31T22:10:51.947Z,1.00
2023-03-31T22:13:23.777Z,4.88
2023-03-31T22:15:51.033Z,4.88
2023-03-31T22:18:18.249Z,2.97
2023-03-31T22:20:46.293Z,1.70
2023-03-31T22:23:13.542Z,2.33
2023-03-31T22:25:41.457Z,2.88
2023-03-31T22:28:08.998Z,1.20
2023-03-31T22:30:36.697Z,1.92
2023-03-31T22:33:03.907Z,1.50
2023-03-31T22:35:31.415Z,1.83
2023-03-31T22:37:58.497Z,1.63
2023-03-31T22:40:25.578Z,3.83
2023-03-31T22:42:54.727Z,3.50
2023-03-31T22:45:21.752Z,2.63
2023-03-31T22:47:48.739Z,2.78
2023-03-31T22:50:16.061Z,7.18
2023-03-31T22:52:45.110Z,2.88
2023-03-31T22:55:12.174Z,2.78
2023-03-31T22:57:39.376Z,3.20
2023-03-31T23:00:07.119Z,6.22
2023-03-31T23:02:34.237Z,6.95
2023-03-31T23:05:01.289Z,5.43
2023-03-31T23:07:29.312Z,4.93
2023-03-31T23:09:56.304Z,6.32
2023-03-31T23:12:25.828Z,4.18
2023-03-31T23:14:52.720Z,5.03
2023-03-31T23:17:19.789Z,7.30
2023-03-31T23:19:47.671Z,4.28
2023-03-31T23:22:14.888Z,4.63
2023-03-31T23:24:41.825Z,5.78
2023-03-31T23:27:09.039Z,4.53
2023-03-31T23:29:36.263Z,4.50
2023-03-31T23:32:03.622Z,7.40
2023-03-31T23:34:30.898Z,2.53
2023-03-31T23:36:58.019Z,7.32
2023-03-31T23:39:25.132Z,2.50
2023-03-31T23:41:52.238Z,5.70
2023-03-31T23:44:19.346Z,4.22
2023-03-31T23:46:46.508Z,3.33
2023-03-31T23:49:13.476Z,3.80
2023-03-31T23:51:40.388Z,4.05
2023-03-31T23:54:07.589Z,2.13
2023-03-31T23:56:34.514Z,3.20
2023-03-31T23:59:01.461Z,5.05
